createdAt,value
2019-03-30T00:00:10.557Z,957.8
2019-03-30T00:03:16.621Z,957.7
2019-03-30T00:06:22.585Z,957.7
2019-03-30T00:09:28.686Z,957.6
2019-03-30T00:12:34.707Z,957.6
2019-03-30T00:15:40.776Z,957.6
2019-03-30T00:18:49.602Z,957.6
2019-03-30T00:21:55.563Z,957.6
2019-03-30T00:25:01.444Z,957.7
2019-03-30T00:28:07.379Z,957.6
2019-03-30T00:31:13.344Z,957.6
2019-03-30T00:34:19.322Z,957.5
2019-03-30T00:37:25.284Z,957.4
2019-03-30T00:40:31.222Z,957.4
2019-03-30T00:43:37.186Z,957.4
2019-03-30T00:46:43.145Z,957.5
2019-03-30T00:49:51.351Z,957.4
2019-03-30T00:52:57.413Z,957.4
2019-03-30T00:56:03.373Z,957.4
2019-03-30T00:59:09.338Z,957.4
2019-03-30T01:02:15.319Z,957.4
2019-03-30T01:05:21.376Z,957.4
2019-03-30T01:08:27.346Z,957.4
2019-03-30T01:11:33.217Z,957.5
2019-03-30T01:14:39.101Z,957.4
2019-03-30T01:17:45.115Z,957.4
2019-03-30T01:20:51.299Z,957.4
2019-03-30T01:23:57.342Z,957.4
2019-03-30T01:27:03.273Z,957.5
2019-03-30T01:30:24.338Z,957.4
2019-03-30T01:33:30.234Z,957.5
2019-03-30T01:36:36.215Z,957.5
2019-03-30T01:39:42.292Z,957.5
2019-03-30T01:42:51.352Z,957.6
2019-03-30T01:45:57.368Z,957.5
2019-03-30T01:49:03.329Z,957.6
2019-03-30T01:52:11.882Z,957.5
2019-03-30T01:55:17.809Z,957.5
2019-03-30T01:58:23.873Z,957.6
2019-03-30T02:01:29.756Z,957.5
2019-03-30T02:04:35.789Z,957.5
2019-03-30T02:07:41.749Z,957.6
2019-03-30T02:10:47.631Z,957.4
2019-03-30T02:13:53.668Z,957.4
2019-03-30T02:16:59.631Z,957.4
2019-03-30T02:20:05.592Z,957.4
2019-03-30T02:23:11.553Z,957.4
2019-03-30T02:26:17.512Z,957.4
2019-03-30T02:29:23.467Z,957.4
2019-03-30T02:32:32.095Z,957.4
2019-03-30T02:35:38.165Z,957.4
2019-03-30T02:38:44.215Z,957.4
2019-03-30T02:41:50.099Z,957.4
2019-03-30T02:44:56.189Z,957.4
2019-03-30T02:48:02.303Z,957.4
2019-03-30T02:51:08.311Z,957.4
2019-03-30T02:54:17.703Z,957.4
2019-03-30T02:57:23.769Z,957.4
2019-03-30T03:00:29.728Z,957.4
2019-03-30T03:03:35.786Z,957.4
2019-03-30T03:06:41.848Z,957.4
2019-03-30T03:09:47.812Z,957.4
2019-03-30T03:12:53.977Z,957.5
2019-03-30T03:16:00.140Z,957.4
2019-03-30T03:19:08.963Z,957.4
2019-03-30T03:22:14.969Z,957.5
2019-03-30T03:25:20.994Z,957.4
2019-03-30T03:28:26.867Z,957.4
2019-03-30T03:31:32.990Z,957.4
2019-03-30T03:34:39.193Z,957.5
2019-03-30T03:37:47.513Z,957.5
2019-03-30T03:40:53.374Z,957.5
2019-03-30T03:43:59.510Z,957.5
2019-03-30T03:47:05.471Z,957.5
2019-03-30T03:50:11.361Z,957.6
2019-03-30T03:53:17.497Z,957.6
2019-03-30T03:56:23.663Z,957.5
2019-03-30T03:59:29.722Z,957.6
2019-03-30T04:02:35.682Z,957.6
2019-03-30T04:05:41.710Z,957.6
2019-03-30T04:08:47.756Z,957.6
2019-03-30T04:11:53.766Z,957.7
2019-03-30T04:14:59.880Z,957.8
2019-03-30T04:18:05.889Z,957.8
2019-03-30T04:21:11.852Z,957.8
2019-03-30T04:24:17.809Z,957.9
2019-03-30T04:27:23.738Z,957.9
2019-03-30T04:30:29.742Z,957.9
2019-03-30T04:33:35.808Z,957.9
2019-03-30T04:36:41.798Z,958
2019-03-30T04:39:47.925Z,957.9
2019-03-30T04:42:53.978Z,957.9
2019-03-30T04:45:59.942Z,957.9
2019-03-30T04:49:06.001Z,957.9
2019-03-30T04:52:11.966Z,957.9
2019-03-30T04:55:17.931Z,957.9
2019-03-30T04:58:23.823Z,957.9
2019-03-30T05:01:29.842Z,957.9
2019-03-30T05:04:35.903Z,957.9
2019-03-30T05:07:41.787Z,957.9
2019-03-30T05:10:47.824Z,958
2019-03-30T05:13:53.716Z,958
2019-03-30T05:16:59.774Z,958
2019-03-30T05:20:05.834Z,958
2019-03-30T05:23:11.874Z,958
2019-03-30T05:26:17.810Z,958
2019-03-30T05:29:23.817Z,958
2019-03-30T05:32:29.777Z,958
2019-03-30T05:35:35.735Z,958
2019-03-30T05:38:41.595Z,958
2019-03-30T05:41:47.578Z,957.9
2019-03-30T05:44:53.589Z,958
2019-03-30T05:48:03.315Z,957.9
2019-03-30T05:51:09.303Z,957.9
2019-03-30T05:54:15.176Z,957.9
2019-03-30T05:57:21.114Z,957.9
2019-03-30T06:00:27.075Z,957.8
2019-03-30T06:03:33.035Z,957.8
2019-03-30T06:06:39.107Z,957.8
2019-03-30T06:09:45.107Z,957.7
2019-03-30T06:12:51.147Z,957.6
2019-03-30T06:15:57.107Z,957.6
2019-03-30T06:19:03.059Z,957.7
2019-03-30T06:22:09.006Z,957.6
2019-03-30T06:25:14.962Z,957.6
2019-03-30T06:28:20.939Z,957.5
2019-03-30T06:31:26.898Z,957.6
2019-03-30T06:34:32.788Z,957.6
2019-03-30T06:37:38.666Z,957.6
2019-03-30T06:40:44.669Z,957.6
2019-03-30T06:43:50.538Z,957.6
2019-03-30T06:46:56.483Z,957.6
2019-03-30T06:50:02.399Z,957.7
2019-03-30T06:53:08.357Z,957.6
2019-03-30T06:56:14.221Z,957.7
2019-03-30T06:59:20.222Z,957.7
2019-03-30T07:02:26.090Z,957.7
2019-03-30T07:05:32.132Z,957.6
2019-03-30T07:08:38.013Z,957.7
2019-03-30T07:11:43.954Z,957.7
2019-03-30T07:14:49.829Z,957.7
2019-03-30T07:17:55.874Z,957.8
2019-03-30T07:21:01.759Z,957.8
2019-03-30T07:24:07.797Z,957.7
2019-03-30T07:27:13.760Z,957.7
2019-03-30T07:30:19.700Z,957.8
2019-03-30T07:33:25.778Z,957.8
2019-03-30T07:36:31.649Z,957.7
2019-03-30T07:39:37.593Z,957.7
2019-03-30T07:42:43.556Z,957.7
2019-03-30T07:45:49.491Z,957.7
2019-03-30T07:48:55.410Z,957.7
2019-03-30T07:52:01.440Z,957.7
2019-03-30T07:55:07.545Z,957.7
2019-03-30T07:58:13.569Z,957.7
2019-03-30T08:01:19.433Z,957.8
2019-03-30T08:04:28.510Z,957.7
2019-03-30T08:07:34.826Z,957.8
2019-03-30T08:10:40.987Z,957.7
2019-03-30T08:13:46.961Z,957.7
2019-03-30T08:16:52.909Z,957.7
2019-03-30T08:19:58.867Z,957.7
2019-03-30T08:23:04.947Z,957.7
2019-03-30T08:26:10.986Z,957.7
2019-03-30T08:29:16.862Z,957.7
2019-03-30T08:32:22.803Z,957.7
2019-03-30T08:35:28.681Z,957.6
2019-03-30T08:38:34.724Z,957.5
2019-03-30T08:41:43.861Z,957.5
2019-03-30T08:44:49.739Z,957.5
2019-03-30T08:47:55.674Z,957.4
2019-03-30T08:51:01.717Z,957.5
2019-03-30T08:54:07.815Z,957.4
2019-03-30T08:57:13.764Z,957.4
2019-03-30T09:00:19.719Z,957.4
2019-03-30T09:03:25.680Z,957.4
2019-03-30T09:06:31.637Z,957.3
2019-03-30T09:09:37.615Z,957.3
2019-03-30T09:12:43.766Z,957.1
2019-03-30T09:15:52.285Z,957.1
2019-03-30T09:18:58.173Z,957.2
2019-03-30T09:22:04.048Z,957.1
2019-03-30T09:25:10.079Z,957.1
2019-03-30T09:28:15.939Z,957.2
2019-03-30T09:31:21.884Z,957.2
2019-03-30T09:34:27.757Z,957.1
2019-03-30T09:37:33.799Z,957.1
2019-03-30T09:40:39.677Z,957
2019-03-30T09:43:45.618Z,957
2019-03-30T09:46:51.681Z,957
2019-03-30T09:49:57.639Z,956.9
2019-03-30T09:53:07.393Z,957
2019-03-30T09:56:15.610Z,956.9
2019-03-30T09:59:21.558Z,956.9
2019-03-30T10:02:27.520Z,956.8
2019-03-30T10:05:36.342Z,956.7
2019-03-30T10:08:42.306Z,956.8
2019-03-30T10:11:48.265Z,956.6
2019-03-30T10:14:54.227Z,956.6
2019-03-30T10:18:00.120Z,956.6
2019-03-30T10:21:06.150Z,956.6
2019-03-30T10:24:12.037Z,956.5
2019-03-30T10:27:17.966Z,956.5
2019-03-30T10:30:23.974Z,956.4
2019-03-30T10:33:29.851Z,956.5
2019-03-30T10:36:35.845Z,956.4
2019-03-30T10:39:41.724Z,956.3
2019-03-30T10:42:47.825Z,956.3
2019-03-30T10:45:53.826Z,956
2019-03-30T10:48:59.787Z,956.1
2019-03-30T10:52:05.747Z,956.1
2019-03-30T10:55:11.626Z,956.2
2019-03-30T10:58:17.564Z,956.2
2019-03-30T11:01:23.445Z,956.1
2019-03-30T11:04:29.381Z,956
2019-03-30T11:07:35.450Z,955.9
2019-03-30T11:10:41.371Z,955.8
2019-03-30T11:13:47.469Z,955.8
2019-03-30T11:16:53.430Z,955.8
2019-03-30T11:19:59.392Z,955.7
2019-03-30T11:23:07.843Z,955.6
2019-03-30T11:26:13.873Z,955.6
2019-03-30T11:29:19.934Z,955.6
2019-03-30T11:32:25.834Z,955.6
2019-03-30T11:35:31.955Z,955.5
2019-03-30T11:38:37.833Z,955.4
2019-03-30T11:41:43.872Z,955.5
2019-03-30T11:44:49.757Z,955.4
2019-03-30T11:47:55.894Z,955.3
2019-03-30T11:51:01.859Z,955.4
2019-03-30T11:54:08.951Z,955.4
2019-03-30T11:57:14.902Z,955.3
2019-03-30T12:00:20.863Z,955.4
2019-03-30T12:03:26.929Z,955.3
2019-03-30T12:06:32.987Z,955.2
2019-03-30T12:09:38.946Z,955.1
2019-03-30T12:12:44.967Z,955.1
2019-03-30T12:15:50.890Z,955.1
2019-03-30T12:18:56.829Z,955.1
2019-03-30T12:22:03.196Z,955.1
2019-03-30T12:25:09.084Z,955
2019-03-30T12:28:15.117Z,955
2019-03-30T12:31:21.088Z,954.9
2019-03-30T12:34:27.139Z,954.9
2019-03-30T12:37:33.100Z,954.8
2019-03-30T12:40:39.065Z,954.8
2019-03-30T12:43:44.947Z,954.8
2019-03-30T12:46:53.650Z,954.8
2019-03-30T12:49:59.707Z,954.7
2019-03-30T12:53:05.746Z,954.7
2019-03-30T12:56:11.741Z,954.6
2019-03-30T12:59:20.043Z,954.5
2019-03-30T13:02:26.003Z,954.6
2019-03-30T13:05:31.917Z,954.5
2019-03-30T13:08:38.028Z,954.6
2019-03-30T13:11:43.995Z,954.6
2019-03-30T13:14:49.875Z,954.5
2019-03-30T13:17:55.910Z,954.5
2019-03-30T13:21:01.789Z,954.5
2019-03-30T13:24:07.725Z,954.6
2019-03-30T13:27:14.327Z,954.6
2019-03-30T13:30:20.264Z,954.5
2019-03-30T13:33:26.218Z,954.5
2019-03-30T13:36:32.098Z,954.5
2019-03-30T13:39:38.036Z,954.5
2019-03-30T13:42:43.918Z,954.4
2019-03-30T13:45:49.855Z,954.4
2019-03-30T13:48:55.734Z,954.4
2019-03-30T13:52:01.774Z,954.3
2019-03-30T13:55:07.653Z,954.4
2019-03-30T13:58:13.796Z,954.4
2019-03-30T14:01:19.755Z,954.4
2019-03-30T14:04:25.625Z,954.3
2019-03-30T14:07:31.585Z,954.4
2019-03-30T14:10:40.198Z,954.4
2019-03-30T14:13:46.158Z,954.3
2019-03-30T14:16:52.126Z,954.4
2019-03-30T14:19:58.179Z,954.3
2019-03-30T14:23:04.086Z,954.3
2019-03-30T14:26:10.111Z,954.3
2019-03-30T14:29:16.068Z,954.3
2019-03-30T14:32:21.953Z,954.3
2019-03-30T14:35:27.877Z,954.3
2019-03-30T14:38:33.868Z,954.3
2019-03-30T14:41:42.480Z,954.3
2019-03-30T14:44:48.527Z,954.3
2019-03-30T14:47:57.719Z,954.3
2019-03-30T14:51:06.713Z,954.3
2019-03-30T14:54:12.659Z,954.3
2019-03-30T14:57:18.608Z,954.3
2019-03-30T15:00:25.104Z,954.4
2019-03-30T15:03:32.064Z,954.4
2019-03-30T15:06:38.025Z,954.3
2019-03-30T15:09:43.992Z,954.3
2019-03-30T15:12:50.050Z,954.3
2019-03-30T15:15:57.056Z,954.4
2019-03-30T15:19:03.092Z,954.4
2019-03-30T15:22:08.975Z,954.4
2019-03-30T15:25:15.013Z,954.4
2019-03-30T15:28:21.076Z,954.4
2019-03-30T15:31:26.972Z,954.4
2019-03-30T15:34:32.899Z,954.4
2019-03-30T15:37:38.857Z,954.4
2019-03-30T15:40:44.818Z,954.3
2019-03-30T15:43:53.235Z,954.3
2019-03-30T15:46:59.195Z,954.4
2019-03-30T15:50:05.157Z,954.4
2019-03-30T15:53:11.117Z,954.4
2019-03-30T15:56:17.077Z,954.4
2019-03-30T15:59:23.031Z,954.4
2019-03-30T16:02:28.922Z,954.4
2019-03-30T16:05:34.955Z,954.5
2019-03-30T16:08:40.913Z,954.5
2019-03-30T16:11:46.791Z,954.4
2019-03-30T16:14:52.732Z,954.5
2019-03-30T16:17:58.635Z,954.4
2019-03-30T16:21:04.651Z,954.5
2019-03-30T16:24:10.612Z,954.5
2019-03-30T16:27:30.248Z,954.5
2019-03-30T16:30:36.150Z,954.5
2019-03-30T16:33:42.033Z,954.5
2019-03-30T16:36:51.655Z,954.6
2019-03-30T16:40:00.505Z,954.6
2019-03-30T16:43:09.514Z,954.6
2019-03-30T16:46:15.473Z,954.6
2019-03-30T16:49:21.402Z,954.6
2019-03-30T16:52:27.390Z,954.6
2019-03-30T16:55:33.278Z,954.6
2019-03-30T16:58:39.241Z,954.6
2019-03-30T17:01:45.199Z,954.6
2019-03-30T17:04:51.137Z,954.6
2019-03-30T17:07:57.091Z,954.5
2019-03-30T17:11:03.034Z,954.6
2019-03-30T17:14:09.015Z,954.6
2019-03-30T17:17:14.889Z,954.6
2019-03-30T17:20:20.828Z,954.7
2019-03-30T17:23:26.787Z,954.6
2019-03-30T17:26:32.667Z,954.6
2019-03-30T17:29:38.608Z,954.6
2019-03-30T17:32:44.617Z,954.7
2019-03-30T17:35:50.635Z,954.7
2019-03-30T17:38:56.609Z,954.7
2019-03-30T17:42:02.551Z,954.7
2019-03-30T17:45:08.610Z,954.8
2019-03-30T17:48:14.513Z,954.8
2019-03-30T17:51:20.441Z,954.8
2019-03-30T17:54:26.593Z,954.8
2019-03-30T17:57:32.554Z,954.8
2019-03-30T18:00:41.074Z,954.8
2019-03-30T18:03:46.968Z,954.8
2019-03-30T18:06:52.896Z,954.8
2019-03-30T18:09:58.965Z,954.8
2019-03-30T18:13:08.839Z,954.7
2019-03-30T18:16:14.770Z,954.8
2019-03-30T18:19:24.113Z,954.8
2019-03-30T18:22:30.083Z,954.8
2019-03-30T18:25:35.950Z,954.8
2019-03-30T18:28:41.980Z,954.8
2019-03-30T18:31:47.955Z,954.8
2019-03-30T18:34:54.015Z,954.8
2019-03-30T18:38:00.173Z,954.8
2019-03-30T18:41:06.054Z,954.9
2019-03-30T18:44:11.994Z,954.8
2019-03-30T18:47:17.956Z,954.9
2019-03-30T18:50:23.863Z,954.9
2019-03-30T18:53:29.871Z,954.9
2019-03-30T18:56:35.752Z,954.9
2019-03-30T18:59:41.696Z,955
2019-03-30T19:02:47.751Z,955
2019-03-30T19:05:53.710Z,955
2019-03-30T19:08:59.648Z,955
2019-03-30T19:12:05.642Z,955
2019-03-30T19:15:11.601Z,955
2019-03-30T19:18:17.557Z,955
2019-03-30T19:21:23.515Z,955
2019-03-30T19:24:29.449Z,955
2019-03-30T19:27:35.430Z,955
2019-03-30T19:30:43.595Z,955
2019-03-30T19:33:49.499Z,955.1
2019-03-30T19:36:55.486Z,955
2019-03-30T19:40:01.527Z,955
2019-03-30T19:43:07.404Z,955.1
2019-03-30T19:46:13.668Z,955.1
2019-03-30T19:49:19.657Z,955.1
2019-03-30T19:52:41.181Z,955.1
2019-03-30T19:55:47.092Z,955.2
2019-03-30T19:58:52.976Z,955.2
2019-03-30T20:02:14.480Z,955.2
2019-03-30T20:05:20.538Z,955.2
2019-03-30T20:08:26.498Z,955.2
2019-03-30T20:11:32.558Z,955.2
2019-03-30T20:14:38.634Z,955.2
2019-03-30T20:17:44.500Z,955.2
2019-03-30T20:20:50.451Z,955.1
2019-03-30T20:23:56.318Z,955.1
2019-03-30T20:27:02.260Z,955
2019-03-30T20:30:10.697Z,955
2019-03-30T20:33:16.799Z,954.9
2019-03-30T20:36:25.468Z,954.9
2019-03-30T20:39:31.421Z,955
2019-03-30T20:42:37.535Z,955
2019-03-30T20:45:43.414Z,955
2019-03-30T20:48:49.407Z,955.1
2019-03-30T20:51:55.285Z,955.1
2019-03-30T20:55:01.338Z,955
2019-03-30T20:58:07.459Z,955
2019-03-30T21:01:13.291Z,954.9
2019-03-30T21:04:19.313Z,954.9
2019-03-30T21:07:25.275Z,954.9
2019-03-30T21:10:31.147Z,954.9
2019-03-30T21:13:37.187Z,954.9
2019-03-30T21:16:43.158Z,954.8
2019-03-30T21:19:49.026Z,954.8
2019-03-30T21:22:54.972Z,954.9
2019-03-30T21:26:01.031Z,954.8
2019-03-30T21:29:06.907Z,954.8
2019-03-30T21:32:12.847Z,954.8
2019-03-30T21:35:18.908Z,954.9
2019-03-30T21:38:24.907Z,954.8
2019-03-30T21:41:30.931Z,954.7
2019-03-30T21:44:42.693Z,954.8
2019-03-30T21:47:48.691Z,954.7
2019-03-30T21:50:54.631Z,954.7
2019-03-30T21:54:00.610Z,954.7
2019-03-30T21:57:06.487Z,954.7
2019-03-30T22:00:13.003Z,954.7
2019-03-30T22:03:18.999Z,954.7
2019-03-30T22:06:24.958Z,954.7
2019-03-30T22:09:30.840Z,954.6
2019-03-30T22:12:36.949Z,954.6
2019-03-30T22:15:42.949Z,954.6
2019-03-30T22:18:48.850Z,954.6
2019-03-30T22:21:54.862Z,954.5
2019-03-30T22:25:00.973Z,954.5
2019-03-30T22:28:06.999Z,954.5
2019-03-30T22:31:12.947Z,954.5
2019-03-30T22:34:18.828Z,954.5
2019-03-30T22:37:24.762Z,954.6
2019-03-30T22:40:30.775Z,954.5
2019-03-30T22:43:36.788Z,954.5
2019-03-30T22:46:42.747Z,954.5
2019-03-30T22:49:48.625Z,954.5
2019-03-30T22:52:54.565Z,954.5
2019-03-30T22:56:00.445Z,954.5
2019-03-30T22:59:09.555Z,954.5
2019-03-30T23:02:15.453Z,954.5
2019-03-30T23:05:23.934Z,954.5
2019-03-30T23:08:29.913Z,954.4
2019-03-30T23:11:36.033Z,954.4
2019-03-30T23:14:42.121Z,954.3
2019-03-30T23:17:51.054Z,954.3
2019-03-30T23:20:56.929Z,954.3
2019-03-30T23:24:02.870Z,954.2
2019-03-30T23:27:08.930Z,954.2
2019-03-30T23:30:14.809Z,954.2
2019-03-30T23:33:20.746Z,954.2
2019-03-30T23:36:26.713Z,954.2
2019-03-30T23:39:32.673Z,954.1
2019-03-30T23:42:38.546Z,954.1
2019-03-30T23:45:44.894Z,954
2019-03-30T23:48:50.773Z,954
2019-03-30T23:51:56.712Z,953.9
2019-03-30T23:55:02.601Z,953.9
2019-03-30T23:58:08.534Z,953.9
